createdAt,value
2018-08-07T00:00:44.869Z,23.9
2018-08-07T00:01:34.919Z,23.9
2018-08-07T00:02:25.500Z,23.9
2018-08-07T00:03:15.070Z,23.9
2018-08-07T00:04:05.159Z,23.9
2018-08-07T00:04:54.587Z,23.9
2018-08-07T00:05:45.453Z,23.9
2018-08-07T00:06:35.771Z,23.9
2018-08-07T00:07:25.560Z,23.9
2018-08-07T00:08:15.969Z,23.9
2018-08-07T00:09:05.485Z,23.9
2018-08-07T00:09:55.781Z,23.9
2018-08-07T00:10:45.575Z,23.9
2018-08-07T00:11:35.875Z,23.9
2018-08-07T00:12:25.921Z,24
2018-08-07T00:13:16.568Z,24
2018-08-07T00:14:06.363Z,23.9
2018-08-07T00:14:56.443Z,23.9
2018-08-07T00:15:46.668Z,23.9
2018-08-07T00:16:36.494Z,23.9
2018-08-07T00:17:26.559Z,24
2018-08-07T00:18:16.379Z,23.9
2018-08-07T00:19:06.695Z,24
2018-08-07T00:19:57.092Z,24
2018-08-07T00:20:47.155Z,23.9
2018-08-07T00:21:36.403Z,24
2018-08-07T00:22:26.757Z,23.9
2018-08-07T00:23:16.542Z,24
2018-08-07T00:24:06.822Z,24
2018-08-07T00:24:56.921Z,24
2018-08-07T00:25:46.645Z,24
2018-08-07T00:26:37.580Z,23.9
2018-08-07T00:27:27.407Z,24
2018-08-07T00:28:18.087Z,24
2018-08-07T00:29:07.490Z,24
2018-08-07T00:29:57.008Z,24
2018-08-07T00:30:47.319Z,24
2018-08-07T00:31:38.312Z,24
2018-08-07T00:32:27.748Z,24
2018-08-07T00:33:17.798Z,24
2018-08-07T00:34:08.173Z,24
2018-08-07T00:34:57.715Z,24
2018-08-07T00:35:48.341Z,24
2018-08-07T00:36:37.830Z,24
2018-08-07T00:37:27.615Z,24
2018-08-07T00:38:17.949Z,24
2018-08-07T00:39:08.830Z,24
2018-08-07T00:39:58.333Z,24
2018-08-07T00:40:48.461Z,24
2018-08-07T00:41:38.840Z,24
2018-08-07T00:42:27.644Z,24
2018-08-07T00:43:18.871Z,24
2018-08-07T00:44:08.704Z,24
2018-08-07T00:44:58.733Z,24
2018-08-07T00:45:48.539Z,24
2018-08-07T00:46:38.634Z,24
2018-08-07T00:47:28.340Z,24
2018-08-07T00:48:18.725Z,24
2018-08-07T00:49:08.170Z,24
2018-08-07T00:49:58.548Z,24
2018-08-07T00:50:48.924Z,24
2018-08-07T00:51:39.271Z,24
2018-08-07T00:52:28.970Z,24
2018-08-07T00:53:18.795Z,24
2018-08-07T00:54:09.153Z,24
2018-08-07T00:54:58.976Z,24
2018-08-07T00:55:49.294Z,24
2018-08-07T00:56:39.059Z,24
2018-08-07T00:57:29.138Z,24.1
2018-08-07T00:58:20.049Z,24
2018-08-07T00:59:08.950Z,24
2018-08-07T00:59:58.223Z,24.1
2018-08-07T01:00:49.093Z,24
2018-08-07T01:01:39.794Z,24
2018-08-07T01:02:29.223Z,24.1
2018-08-07T01:03:19.873Z,24
2018-08-07T01:04:09.658Z,24.1
2018-08-07T01:04:59.966Z,24.1
2018-08-07T01:05:49.448Z,24.1
2018-08-07T01:06:40.415Z,24
2018-08-07T01:07:30.572Z,24
2018-08-07T01:08:20.520Z,24.1
2018-08-07T01:09:10.029Z,24.1
2018-08-07T01:10:00.378Z,24
2018-08-07T01:10:51.012Z,24
2018-08-07T01:11:41.067Z,24.1
2018-08-07T01:12:31.030Z,24.1
2018-08-07T01:13:20.625Z,24.1
2018-08-07T01:14:11.556Z,24.1
2018-08-07T01:15:01.323Z,24
2018-08-07T01:15:51.397Z,24.1
2018-08-07T01:16:41.742Z,24
2018-08-07T01:17:31.820Z,24.1
2018-08-07T01:18:20.986Z,24
2018-08-07T01:19:11.090Z,24
2018-08-07T01:20:00.375Z,24.1
2018-08-07T01:20:51.819Z,24.1
2018-08-07T01:21:41.832Z,24
2018-08-07T01:22:31.885Z,24.1
2018-08-07T01:23:22.004Z,24.1
2018-08-07T01:24:11.764Z,24
2018-08-07T01:25:01.767Z,24.1
2018-08-07T01:25:51.020Z,24
2018-08-07T01:26:42.217Z,24.1
2018-08-07T01:27:32.317Z,24
2018-08-07T01:28:22.077Z,24.1
2018-08-07T01:29:11.836Z,24
2018-08-07T01:30:02.288Z,24.1
2018-08-07T01:30:52.062Z,24.1
2018-08-07T01:31:42.849Z,24.1
2018-08-07T01:32:32.152Z,24
2018-08-07T01:33:23.048Z,24.1
2018-08-07T01:34:12.209Z,24
2018-08-07T01:35:02.899Z,24.1
2018-08-07T01:35:52.963Z,24.1
2018-08-07T01:36:43.269Z,24.1
2018-08-07T01:37:33.306Z,24.1
2018-08-07T01:38:22.540Z,24
2018-08-07T01:39:13.146Z,24.1
2018-08-07T01:40:03.260Z,24.1
2018-08-07T01:40:53.313Z,24.1
2018-08-07T01:41:43.412Z,24.1
2018-08-07T01:42:32.937Z,24.1
2018-08-07T01:43:23.571Z,24
2018-08-07T01:44:13.032Z,24.1
2018-08-07T01:45:03.339Z,24.1
2018-08-07T01:45:53.687Z,24.1
2018-08-07T01:46:43.724Z,24.1
2018-08-07T01:47:33.517Z,24.1
2018-08-07T01:48:23.635Z,24
2018-08-07T01:49:13.937Z,24.1
2018-08-07T01:50:03.437Z,24.1
2018-08-07T01:50:53.455Z,24.1
2018-08-07T01:51:44.087Z,24.1
2018-08-07T01:52:33.602Z,24.1
2018-08-07T01:53:24.194Z,24.1
2018-08-07T01:54:14.605Z,24.1
2018-08-07T01:55:04.097Z,24.1
2018-08-07T01:55:53.940Z,24.1
2018-08-07T01:56:44.184Z,24.1
2018-08-07T01:57:34.844Z,24.1
2018-08-07T01:58:24.151Z,24.1
2018-08-07T01:59:14.197Z,24.1
2018-08-07T02:00:04.010Z,24.1
2018-08-07T05:07:06.542Z,23.8
2018-08-07T05:07:56.238Z,23.8
2018-08-07T05:08:45.975Z,23.8
2018-08-07T05:09:36.309Z,23.8
2018-08-07T05:10:26.837Z,23.7
2018-08-07T05:11:16.841Z,23.8
2018-08-07T05:12:07.124Z,23.8
2018-08-07T05:12:56.883Z,23.8
2018-08-07T05:13:46.836Z,23.8
2018-08-07T05:14:36.939Z,23.8
2018-08-07T05:15:26.158Z,23.7
2018-08-07T05:16:17.395Z,23.8
2018-08-07T05:17:07.507Z,23.8
2018-08-07T05:17:56.913Z,23.8
2018-08-07T05:18:46.784Z,23.8
2018-08-07T05:19:37.409Z,23.8
2018-08-07T05:20:27.467Z,23.8
2018-08-07T05:21:17.488Z,23.8
2018-08-07T05:22:07.015Z,23.8
2018-08-07T05:22:57.310Z,23.8
2018-08-07T05:23:46.895Z,23.7
2018-08-07T05:24:37.463Z,23.7
2018-08-07T05:25:27.776Z,23.7
2018-08-07T05:26:17.578Z,23.7
2018-08-07T05:27:07.505Z,23.7
2018-08-07T05:27:57.183Z,23.8
2018-08-07T05:28:49.455Z,23.7
2018-08-07T05:29:37.899Z,23.7
2018-08-07T05:30:27.897Z,23.8
2018-08-07T05:31:17.465Z,23.8
2018-08-07T05:32:07.539Z,23.8
2018-08-07T05:32:58.645Z,23.8
2018-08-07T05:33:47.689Z,23.7
2018-08-07T05:34:38.835Z,23.8
2018-08-07T05:35:28.573Z,23.8
2018-08-07T05:36:18.088Z,23.8
2018-08-07T05:37:08.454Z,23.7
2018-08-07T05:37:59.037Z,23.7
2018-08-07T05:38:48.546Z,23.8
2018-08-07T05:39:38.810Z,23.8
2018-08-07T05:40:43.659Z,23.7
2018-08-07T05:41:18.308Z,23.7
2018-08-07T05:42:08.884Z,23.8
2018-08-07T05:42:59.703Z,23.8
2018-08-07T05:43:49.299Z,23.7
2018-08-07T05:44:38.764Z,23.7
2018-08-07T05:45:28.756Z,23.8
2018-08-07T05:46:19.103Z,23.8
2018-08-07T05:47:09.491Z,23.8
2018-08-07T05:47:59.518Z,23.8
2018-08-07T05:48:49.100Z,23.8
2018-08-07T05:49:39.894Z,23.8
2018-08-07T05:50:33.476Z,23.8
2018-08-07T05:51:25.204Z,23.8
2018-08-07T05:52:09.559Z,23.8
2018-08-07T05:52:59.869Z,23.8
2018-08-07T05:53:50.501Z,23.8
2018-08-07T05:54:40.304Z,23.8
2018-08-07T05:55:30.369Z,23.8
2018-08-07T05:56:19.923Z,23.8
2018-08-07T05:57:09.698Z,23.8
2018-08-07T05:58:01.343Z,23.8
2018-08-07T05:59:04.273Z,23.8
2018-08-07T05:59:40.733Z,23.8
2018-08-07T06:00:29.981Z,23.8
2018-08-07T06:01:19.724Z,23.8
2018-08-07T06:02:10.989Z,23.8
2018-08-07T06:03:00.087Z,23.8
2018-08-07T06:03:49.994Z,23.8
2018-08-07T06:04:40.698Z,23.8
2018-08-07T06:05:30.847Z,23.8
2018-08-07T06:06:20.396Z,23.8
2018-08-07T06:07:10.726Z,23.8
2018-08-07T06:08:01.361Z,23.8
2018-08-07T06:09:06.086Z,23.8
2018-08-07T06:09:39.835Z,23.8
2018-08-07T06:10:30.444Z,23.8
2018-08-07T06:11:21.051Z,23.8
2018-08-07T06:12:11.383Z,23.8
2018-08-07T06:13:01.721Z,23.8
2018-08-07T06:13:50.766Z,23.8
2018-08-07T06:14:41.138Z,23.8
2018-08-07T06:15:31.455Z,23.8
2018-08-07T06:16:20.675Z,23.8
2018-08-07T06:17:11.629Z,23.8
2018-08-07T06:18:01.600Z,23.8
2018-08-07T06:18:50.891Z,23.8
2018-08-07T06:19:42.262Z,23.8
2018-08-07T06:20:32.075Z,23.8
2018-08-07T06:21:22.089Z,23.8
2018-08-07T06:22:12.838Z,23.8
2018-08-07T06:23:02.188Z,23.8
2018-08-07T06:23:52.325Z,23.8
2018-08-07T06:24:42.322Z,23.8
2018-08-07T06:25:32.865Z,23.8
2018-08-07T06:26:22.445Z,23.8
2018-08-07T06:27:12.311Z,23.8
2018-08-07T06:28:01.862Z,23.8
2018-08-07T06:28:51.937Z,23.8
2018-08-07T06:29:42.300Z,23.8
2018-08-07T06:30:30.984Z,23.8
2018-08-07T06:31:22.496Z,23.8
2018-08-07T06:32:12.175Z,23.8
2018-08-07T06:33:01.598Z,23.9
2018-08-07T06:33:52.148Z,23.8
2018-08-07T06:34:42.511Z,23.8
2018-08-07T06:35:32.144Z,23.8
2018-08-07T06:36:21.182Z,23.8
2018-08-07T06:37:12.765Z,23.9
2018-08-07T06:38:03.119Z,23.9
2018-08-07T06:38:53.209Z,23.9
2018-08-07T06:39:43.311Z,23.9
2018-08-07T06:40:32.816Z,23.9
2018-08-07T06:41:23.407Z,23.8
2018-08-07T06:42:13.472Z,23.9
2018-08-07T06:43:05.785Z,23.9
2018-08-07T06:43:54.213Z,23.9
2018-08-07T06:44:43.956Z,23.9
2018-08-07T06:45:33.979Z,23.9
2018-08-07T06:46:24.046Z,23.8
2018-08-07T06:47:13.269Z,23.9
2018-08-07T06:48:05.148Z,23.9
2018-08-07T06:48:54.488Z,23.9
2018-08-07T06:49:44.279Z,23.9
2018-08-07T06:50:34.109Z,23.9
2018-08-07T06:51:24.098Z,23.9
2018-08-07T06:52:14.471Z,23.9
2018-08-07T06:53:04.346Z,23.9
2018-08-07T06:54:08.792Z,23.9
2018-08-07T06:54:44.123Z,23.9
2018-08-07T06:55:34.774Z,23.9
2018-08-07T06:56:24.591Z,23.9
2018-08-07T06:57:15.640Z,23.9
2018-08-07T06:58:05.245Z,23.9
2018-08-07T06:58:54.491Z,23.9
2018-08-07T06:59:45.362Z,23.9
2018-08-07T07:00:35.418Z,23.9
2018-08-07T07:01:25.448Z,23.9
2018-08-07T07:02:15.305Z,23.9
2018-08-07T07:03:05.742Z,23.9
2018-08-07T07:03:54.910Z,23.9
2018-08-07T07:04:45.245Z,23.9
2018-08-07T07:05:35.063Z,23.9
2018-08-07T07:06:26.286Z,23.9
2018-08-07T07:07:15.658Z,23.9
2018-08-07T07:08:04.646Z,23.9
2018-08-07T07:08:55.572Z,23.9
2018-08-07T07:09:45.433Z,23.9
2018-08-07T07:10:35.173Z,23.9
2018-08-07T07:11:26.064Z,23.9
2018-08-07T07:12:16.087Z,23.9
2018-08-07T07:13:05.885Z,23.9
2018-08-07T07:13:55.671Z,23.9
2018-08-07T07:14:45.582Z,23.9
2018-08-07T07:15:35.208Z,23.9
2018-08-07T07:16:26.141Z,23.9
2018-08-07T07:17:15.910Z,23.9
2018-08-07T07:18:06.236Z,23.9
2018-08-07T07:18:54.746Z,23.9
2018-08-07T07:19:45.435Z,23.9
2018-08-07T07:20:35.468Z,23.9
2018-08-07T07:21:25.957Z,23.9
2018-08-07T07:22:16.067Z,23.9
2018-08-07T07:23:06.156Z,23.9
2018-08-07T07:23:56.696Z,23.9
2018-08-07T07:24:46.841Z,23.9
2018-08-07T07:25:36.421Z,23.9
2018-08-07T07:26:26.667Z,23.9
2018-08-07T07:27:16.950Z,23.9
2018-08-07T07:28:06.736Z,23.9
2018-08-07T07:28:57.363Z,23.9
2018-08-07T07:29:46.942Z,23.9
2018-08-07T07:30:37.714Z,23.9
2018-08-07T07:31:27.037Z,23.9
2018-08-07T07:32:17.584Z,23.9
2018-08-07T07:33:07.913Z,23.9
2018-08-07T07:33:57.451Z,23.9
2018-08-07T07:34:49.117Z,23.9
2018-08-07T07:35:38.170Z,23.9
2018-08-07T07:36:27.430Z,23.9
2018-08-07T07:37:18.285Z,23.9
2018-08-07T07:38:08.072Z,23.9
2018-08-07T07:38:58.399Z,23.9
2018-08-07T07:39:47.389Z,24
2018-08-07T07:40:38.273Z,23.9
2018-08-07T07:41:28.125Z,23.9
2018-08-07T07:42:17.900Z,23.9
2018-08-07T07:43:08.184Z,23.9
2018-08-07T07:43:56.943Z,23.9
2018-08-07T07:44:48.382Z,23.9
2018-08-07T07:45:38.443Z,23.9
2018-08-07T07:46:28.729Z,23.9
2018-08-07T07:47:33.138Z,23.9
2018-08-07T07:48:07.801Z,24
2018-08-07T07:48:58.643Z,24
2018-08-07T07:49:49.306Z,24
2018-08-07T07:50:39.386Z,23.9
2018-08-07T07:51:28.561Z,23.9
2018-08-07T07:52:19.388Z,23.9
2018-08-07T07:53:23.903Z,24
2018-08-07T07:54:00.235Z,24
2018-08-07T07:54:49.379Z,23.9
2018-08-07T07:55:38.878Z,23.9
2018-08-07T07:56:29.769Z,24
2018-08-07T07:57:19.786Z,24
2018-08-07T07:58:09.516Z,24
2018-08-07T07:58:59.900Z,24
2018-08-07T07:59:49.445Z,24
2018-08-07T08:00:39.281Z,24
2018-08-07T08:01:30.164Z,24
2018-08-07T08:02:20.201Z,24
2018-08-07T08:03:10.305Z,24
2018-08-07T08:03:59.513Z,24
2018-08-07T08:04:50.137Z,24
2018-08-07T08:05:41.468Z,24
2018-08-07T08:06:30.268Z,24
2018-08-07T08:07:20.167Z,24
2018-08-07T08:08:10.167Z,24
2018-08-07T08:09:00.450Z,24
2018-08-07T08:09:50.768Z,24
2018-08-07T08:10:40.073Z,24
2018-08-07T08:11:30.412Z,24
2018-08-07T08:12:20.724Z,24
2018-08-07T08:13:11.102Z,24
2018-08-07T08:14:01.129Z,24
2018-08-07T08:14:50.943Z,24
2018-08-07T08:15:41.357Z,24
2018-08-07T08:16:31.131Z,24
2018-08-07T08:17:21.125Z,24
2018-08-07T08:18:09.787Z,24
2018-08-07T08:19:01.250Z,24
2018-08-07T08:19:50.589Z,24.1
2018-08-07T08:20:41.173Z,24
2018-08-07T08:21:30.880Z,24
2018-08-07T08:22:21.822Z,24
2018-08-07T08:23:11.572Z,24
2018-08-07T08:24:01.361Z,24
2018-08-07T08:24:51.684Z,24
2018-08-07T08:25:42.095Z,24
2018-08-07T08:26:31.854Z,24
2018-08-07T08:27:21.691Z,24
2018-08-07T08:28:10.977Z,24
2018-08-07T08:29:02.705Z,24
2018-08-07T08:29:53.506Z,24
2018-08-07T08:30:41.064Z,24
2018-08-07T08:31:32.497Z,24
2018-08-07T08:32:22.089Z,24.1
2018-08-07T08:33:11.793Z,24.1
2018-08-07T08:34:02.389Z,24.1
2018-08-07T08:34:52.719Z,24.1
2018-08-07T08:35:43.320Z,24
2018-08-07T08:36:32.866Z,24.1
2018-08-07T08:37:22.599Z,24
2018-08-07T08:38:13.001Z,24.1
2018-08-07T08:39:03.098Z,24.1
2018-08-07T08:39:52.887Z,24.1
2018-08-07T08:40:42.180Z,24
2018-08-07T08:41:32.196Z,24.1
2018-08-07T08:42:23.381Z,24.1
2018-08-07T08:43:12.571Z,24.1
2018-08-07T08:44:02.897Z,24.1
2018-08-07T08:44:53.048Z,24
2018-08-07T08:45:43.348Z,24.1
2018-08-07T08:46:33.675Z,24.1
2018-08-07T08:47:23.164Z,24.1
2018-08-07T08:48:13.490Z,24.1
2018-08-07T08:49:03.342Z,24.1
2018-08-07T08:49:52.374Z,24.1
2018-08-07T08:50:42.896Z,24.1
2018-08-07T08:51:33.257Z,24.1
2018-08-07T08:52:23.858Z,24.1
2018-08-07T08:53:13.938Z,24.1
2018-08-07T08:54:04.578Z,24.1
2018-08-07T08:54:53.797Z,24.1
2018-08-07T08:55:43.372Z,24.1
2018-08-07T08:56:33.927Z,24.1
2018-08-07T08:57:24.569Z,24.1
2018-08-07T08:58:14.063Z,24.1
2018-08-07T08:59:03.934Z,24.1
2018-08-07T08:59:54.162Z,24.1
2018-08-07T09:00:43.713Z,24.1
2018-08-07T09:01:33.566Z,24.1
2018-08-07T09:02:24.939Z,24
2018-08-07T09:03:14.198Z,24.1
2018-08-07T09:04:04.802Z,24.1
2018-08-07T09:21:29.301Z,24.1
2018-08-07T09:22:19.655Z,24.1
2018-08-07T09:23:10.311Z,24.1
2018-08-07T09:23:59.760Z,24.1
2018-08-07T09:24:50.060Z,24.1
2018-08-07T09:25:43.919Z,24.1
2018-08-07T09:26:29.964Z,24.1
2018-08-07T09:27:19.987Z,24.1
2018-08-07T09:28:10.591Z,24.1
2018-08-07T09:29:00.188Z,24.1
2018-08-07T09:29:50.455Z,24.1
2018-08-07T09:30:40.320Z,24.1
2018-08-07T09:31:30.530Z,24.1
2018-08-07T09:32:20.692Z,24.1
2018-08-07T09:33:11.092Z,24.1
2018-08-07T09:34:00.801Z,24.1
2018-08-07T09:34:51.168Z,24.1
2018-08-07T09:35:40.706Z,24.1
2018-08-07T09:36:31.299Z,24.1
2018-08-07T09:37:21.145Z,24.1
2018-08-07T09:38:11.439Z,24.1
2018-08-07T09:39:01.555Z,24.1
2018-08-07T09:39:51.753Z,24.1
2018-08-07T09:40:41.193Z,24.1
2018-08-07T09:41:30.896Z,24.1
2018-08-07T09:42:21.774Z,24.1
2018-08-07T09:43:11.562Z,24.1
2018-08-07T09:44:01.673Z,24.1
2018-08-07T09:44:51.787Z,24.1
2018-08-07T09:45:41.771Z,24.1
2018-08-07T09:46:32.709Z,24.1
2018-08-07T09:47:21.408Z,24.1
2018-08-07T09:48:12.260Z,24.1
2018-08-07T09:49:02.005Z,24.1
2018-08-07T09:49:53.882Z,24.1
2018-08-07T09:50:41.873Z,24.1
2018-08-07T09:51:32.220Z,24.1
2018-08-07T09:52:23.481Z,24.1
2018-08-07T09:53:11.755Z,24.1
2018-08-07T09:54:02.623Z,24.1
2018-08-07T09:54:52.435Z,24.1
2018-08-07T09:55:42.213Z,24.1
2018-08-07T09:56:32.558Z,24.1
2018-08-07T09:57:22.316Z,24.1
2018-08-07T09:58:12.532Z,24.1
2018-08-07T09:59:02.224Z,24.1
2018-08-07T09:59:52.533Z,24.1
2018-08-07T10:00:42.671Z,24.1
2018-08-07T10:01:32.422Z,24.1
2018-08-07T10:02:23.406Z,24.1
2018-08-07T10:03:13.114Z,24.1
2018-08-07T10:04:02.868Z,24.1
2018-08-07T10:04:52.691Z,24.1
2018-08-07T10:05:43.792Z,24.1
2018-08-07T10:06:33.383Z,24.1
2018-08-07T10:07:23.470Z,24.1
2018-08-07T10:08:13.221Z,24.1
2018-08-07T10:09:02.711Z,24.2
2018-08-07T10:09:53.331Z,24.1
2018-08-07T10:10:43.452Z,24.1
2018-08-07T10:11:33.457Z,24.1
2018-08-07T10:12:24.280Z,24.1
2018-08-07T10:13:13.930Z,24.1
2018-08-07T10:14:03.661Z,24.1
2018-08-07T10:14:53.752Z,24.2
2018-08-07T10:15:44.043Z,24.1
2018-08-07T10:16:34.194Z,24.1
2018-08-07T10:17:24.269Z,24.1
2018-08-07T10:18:14.036Z,24.1
2018-08-07T10:19:04.624Z,24.1
2018-08-07T10:19:53.591Z,24.2
2018-08-07T10:20:43.922Z,24.1
2018-08-07T10:21:34.544Z,24.2
2018-08-07T10:22:24.083Z,24.2
2018-08-07T10:23:15.539Z,24.1
2018-08-07T10:24:04.133Z,24.2
2018-08-07T10:24:54.772Z,24.1
2018-08-07T10:25:45.127Z,24.2
2018-08-07T10:26:34.598Z,24.2
2018-08-07T10:27:25.236Z,24.1
2018-08-07T10:28:14.233Z,24.2
2018-08-07T10:29:05.092Z,24.1
2018-08-07T10:29:55.225Z,24.2
2018-08-07T10:30:45.234Z,24.2
2018-08-07T10:31:35.527Z,24.2
2018-08-07T10:32:24.935Z,24.2
2018-08-07T10:33:14.988Z,24.2
2018-08-07T10:34:05.523Z,24.2
2018-08-07T10:34:55.689Z,24.2
2018-08-07T10:35:45.643Z,24.2
2018-08-07T10:36:35.431Z,24.2
2018-08-07T10:37:25.784Z,24.2
2018-08-07T10:38:15.329Z,24.2
2018-08-07T10:39:05.637Z,24.2
2018-08-07T10:39:56.057Z,24.2
2018-08-07T10:40:47.957Z,24.2
2018-08-07T10:41:35.300Z,24.2
2018-08-07T10:42:25.921Z,24.2
2018-08-07T10:43:19.312Z,24.2
2018-08-07T10:44:06.853Z,24.2
2018-08-07T10:44:55.267Z,24.2
2018-08-07T10:45:46.133Z,24.2
2018-08-07T10:46:37.061Z,24.2
2018-08-07T10:47:25.712Z,24.2
2018-08-07T10:48:16.956Z,24.2
2018-08-07T10:49:06.457Z,24.2
2018-08-07T10:49:56.510Z,24.2
2018-08-07T10:50:46.461Z,24.2
2018-08-07T10:51:36.326Z,24.2
2018-08-07T10:52:27.836Z,24.2
2018-08-07T10:53:16.219Z,24.2
2018-08-07T10:54:07.362Z,24.2
2018-08-07T10:54:56.874Z,24.2
2018-08-07T10:55:46.660Z,24.2
2018-08-07T10:56:39.327Z,24.2
2018-08-07T10:57:27.215Z,24.2
2018-08-07T10:58:18.288Z,24.2
2018-08-07T10:59:08.040Z,24.2
2018-08-07T10:59:57.008Z,24.2
2018-08-07T11:00:47.011Z,24.2
2018-08-07T11:01:37.426Z,24.2
2018-08-07T11:02:28.031Z,24.2
2018-08-07T11:03:17.259Z,24.2
2018-08-07T11:04:07.964Z,24.2
2018-08-07T11:04:57.941Z,24.2
2018-08-07T11:05:49.460Z,24.2
2018-08-07T11:06:37.829Z,24.2
2018-08-07T11:07:27.552Z,24.2
2018-08-07T11:08:18.145Z,24.2
2018-08-07T11:09:07.713Z,24.2
2018-08-07T11:09:58.627Z,24.2
2018-08-07T11:10:48.107Z,24.2
2018-08-07T11:11:38.439Z,24.2
2018-08-07T11:12:28.784Z,24.2
2018-08-07T11:13:18.635Z,24.2
2018-08-07T11:14:08.359Z,24.2
2018-08-07T11:14:59.020Z,24.2
2018-08-07T11:15:48.522Z,24.2
2018-08-07T11:16:38.267Z,24.2
2018-08-07T11:17:28.925Z,24.2
2018-08-07T11:18:18.181Z,24.2
2018-08-07T11:19:08.762Z,24.2
2018-08-07T11:19:59.139Z,24.2
2018-08-07T11:20:48.931Z,24.2
2018-08-07T11:21:39.033Z,24.2
2018-08-07T11:22:28.753Z,24.3
2018-08-07T11:23:18.571Z,24.2
2018-08-07T11:24:09.164Z,24.2
2018-08-07T11:24:59.657Z,24.2
2018-08-07T11:25:49.317Z,24.2
2018-08-07T11:26:39.672Z,24.2
2018-08-07T11:27:29.740Z,24.2
2018-08-07T11:28:19.256Z,24.2
2018-08-07T11:29:09.867Z,24.2
2018-08-07T11:30:01.026Z,24.2
2018-08-07T11:30:49.718Z,24.2
2018-08-07T11:31:40.113Z,24.3
2018-08-07T11:32:30.110Z,24.2
2018-08-07T11:33:19.621Z,24.2
2018-08-07T11:34:10.564Z,24.2
2018-08-07T11:35:00.318Z,24.2
2018-08-07T11:35:50.227Z,24.3
2018-08-07T11:36:40.412Z,24.3
2018-08-07T11:37:29.154Z,24.2
2018-08-07T11:38:20.135Z,24.2
2018-08-07T11:39:10.710Z,24.2
2018-08-07T11:40:00.790Z,24.3
2018-08-07T11:40:50.790Z,24.2
2018-08-07T11:41:40.570Z,24.2
2018-08-07T11:42:30.590Z,24.3
2018-08-07T11:43:20.887Z,24.3
2018-08-07T11:44:10.820Z,24.2
2018-08-07T11:45:01.132Z,24.3
2018-08-07T11:45:51.176Z,24.2
2018-08-07T11:46:40.082Z,24.3
2018-08-07T11:47:30.978Z,24.3
2018-08-07T11:48:22.275Z,24.3
2018-08-07T11:49:11.631Z,24.3
2018-08-07T11:50:01.689Z,24.3
2018-08-07T11:50:51.345Z,24.3
2018-08-07T11:51:41.776Z,24.3
2018-08-07T11:52:32.312Z,24.3
2018-08-07T11:53:21.880Z,24.3
2018-08-07T11:54:11.764Z,24.3
2018-08-07T11:55:01.304Z,24.3
2018-08-07T11:55:52.187Z,24.3
2018-08-07T11:56:41.993Z,24.3
2018-08-07T11:57:31.264Z,24.3
2018-08-07T11:58:22.329Z,24.3
2018-08-07T11:59:12.398Z,24.3
2018-08-07T12:00:02.101Z,24.3
2018-08-07T12:00:52.358Z,24.3
2018-08-07T12:01:42.400Z,24.3
2018-08-07T12:02:32.761Z,24.3
2018-08-07T12:03:22.525Z,24.3
2018-08-07T12:04:12.657Z,24.3
2018-08-07T12:05:02.909Z,24.3
2018-08-07T12:05:52.999Z,24.3
2018-08-07T12:06:43.019Z,24.3
2018-08-07T12:07:33.145Z,24.3
2018-08-07T12:08:21.620Z,24.3
2018-08-07T12:09:12.136Z,24.3
2018-08-07T12:10:03.076Z,24.3
2018-08-07T12:10:52.831Z,24.3
2018-08-07T12:11:43.451Z,24.3
2018-08-07T12:12:33.232Z,24.3
2018-08-07T12:13:22.191Z,24.3
2018-08-07T12:14:13.539Z,24.3
2018-08-07T12:15:03.432Z,24.3
2018-08-07T12:15:52.680Z,24.3
2018-08-07T12:16:43.312Z,24.3
2018-08-07T12:17:33.599Z,24.3
2018-08-07T12:18:23.904Z,24.3
2018-08-07T12:19:13.163Z,24.3
2018-08-07T12:20:03.789Z,24.3
2018-08-07T12:20:53.836Z,24.3
2018-08-07T12:21:44.921Z,24.3
2018-08-07T12:22:34.303Z,24.3
2018-08-07T12:23:24.084Z,24.3
2018-08-07T12:24:13.348Z,24.3
2018-08-07T12:25:04.431Z,24.3
2018-08-07T12:25:53.997Z,24.3
2018-08-07T12:26:44.268Z,24.3
2018-08-07T12:27:34.750Z,24.3
2018-08-07T12:28:24.713Z,24.3
2018-08-07T12:29:14.231Z,24.3
2018-08-07T12:30:04.601Z,24.3
2018-08-07T12:30:54.129Z,24.3
2018-08-07T12:31:59.423Z,24.3
2018-08-07T12:32:34.580Z,24.3
2018-08-07T12:33:24.874Z,24.3
2018-08-07T12:34:15.212Z,24.3
2018-08-07T12:35:05.809Z,24.3
2018-08-07T12:35:54.321Z,24.3
2018-08-07T12:36:44.599Z,24.3
2018-08-07T12:37:34.356Z,24.3
2018-08-07T12:38:24.996Z,24.3
2018-08-07T12:39:15.588Z,24.3
2018-08-07T12:40:05.394Z,24.3
2018-08-07T12:40:54.393Z,24.3
2018-08-07T12:41:45.554Z,24.3
2018-08-07T12:42:35.662Z,24.3
2018-08-07T12:43:25.741Z,24.3
2018-08-07T12:44:14.937Z,24.3
2018-08-07T12:45:05.810Z,24.3
2018-08-07T12:45:55.334Z,24.3
2018-08-07T12:46:47.163Z,24.3
2018-08-07T12:47:36.245Z,24.3
2018-08-07T12:48:26.032Z,24.3
2018-08-07T12:49:16.083Z,24.3
2018-08-07T12:50:06.209Z,24.3
2018-08-07T12:50:56.292Z,24.3
2018-08-07T12:51:46.980Z,24.3
2018-08-07T12:52:36.629Z,24.3
2018-08-07T12:53:27.833Z,24.3
2018-08-07T12:54:16.172Z,24.3
2018-08-07T12:55:05.800Z,24.3
2018-08-07T12:55:56.872Z,24.3
2018-08-07T12:56:46.370Z,24.3
2018-08-07T12:57:37.071Z,24.3
2018-08-07T12:58:26.846Z,24.3
2018-08-07T12:59:15.775Z,24.3
2018-08-07T13:00:07.005Z,24.3
2018-08-07T13:00:56.493Z,24.3
2018-08-07T13:01:47.102Z,24.3
2018-08-07T13:02:36.366Z,24.3
2018-08-07T13:03:27.271Z,24.3
2018-08-07T13:04:17.513Z,24.3
2018-08-07T13:05:06.897Z,24.3
2018-08-07T13:05:57.454Z,24.3
2018-08-07T13:06:47.965Z,24.3
2018-08-07T13:07:37.868Z,24.3
2018-08-07T13:08:26.805Z,24.3
2018-08-07T13:09:17.424Z,24.3
2018-08-07T13:10:06.669Z,24.3
2018-08-07T13:10:58.099Z,24.3
2018-08-07T13:11:47.634Z,24.3
2018-08-07T13:12:37.948Z,24.3
2018-08-07T13:13:28.005Z,24.3
2018-08-07T13:14:18.371Z,24.3
2018-08-07T13:15:07.873Z,24.3
2018-08-07T13:15:57.955Z,24.3
2018-08-07T13:16:47.808Z,24.3
2018-08-07T13:17:39.078Z,24.3
2018-08-07T13:18:27.850Z,24.3
2018-08-07T13:19:18.481Z,24.3
2018-08-07T13:20:07.993Z,24.3
2018-08-07T13:20:58.060Z,24.3
2018-08-07T13:21:48.953Z,24.3
2018-08-07T13:22:38.781Z,24.3
2018-08-07T13:23:28.003Z,24.3
2018-08-07T13:24:18.073Z,24.3
2018-08-07T13:25:08.417Z,24.3
2018-08-07T13:26:00.042Z,24.3
2018-08-07T13:26:49.363Z,24.3
2018-08-07T13:27:38.855Z,24.3
2018-08-07T13:28:29.504Z,24.3
2018-08-07T13:29:18.399Z,24.3
2018-08-07T13:30:08.758Z,24.3
2018-08-07T13:30:58.556Z,24.3
2018-08-07T13:31:49.118Z,24.3
2018-08-07T13:32:39.235Z,24.3
2018-08-07T13:33:29.742Z,24.3
2018-08-07T13:34:19.422Z,24.3
2018-08-07T13:35:09.205Z,24.3
2018-08-07T13:35:58.960Z,24.3
2018-08-07T13:36:49.212Z,24.4
2018-08-07T13:37:40.080Z,24.3
2018-08-07T13:38:29.573Z,24.4
2018-08-07T13:39:19.356Z,24.3
2018-08-07T13:40:09.946Z,24.3
2018-08-07T13:41:00.667Z,24.4
2018-08-07T13:41:49.775Z,24.3
2018-08-07T13:42:40.456Z,24.4
2018-08-07T13:43:30.085Z,24.4
2018-08-07T13:44:20.438Z,24.3
2018-08-07T13:45:10.766Z,24.4
2018-08-07T13:46:00.603Z,24.3
2018-08-07T13:46:50.645Z,24.4
2018-08-07T13:47:40.919Z,24.3
2018-08-07T13:48:31.058Z,24.4
2018-08-07T13:49:20.784Z,24.4
2018-08-07T13:50:11.121Z,24.4
2018-08-07T13:51:00.890Z,24.4
2018-08-07T13:51:50.160Z,24.4
2018-08-07T13:52:41.373Z,24.4
2018-08-07T13:53:31.391Z,24.3
2018-08-07T13:54:21.445Z,24.4
2018-08-07T13:55:10.995Z,24.4
2018-08-07T13:56:03.556Z,24.3
2018-08-07T13:56:51.438Z,24.4
2018-08-07T13:57:41.220Z,24.4
2018-08-07T13:58:31.570Z,24.4
2018-08-07T13:59:21.304Z,24.4
2018-08-07T14:00:11.411Z,24.4
2018-08-07T14:01:01.753Z,24.4
2018-08-07T14:01:50.707Z,24.4
2018-08-07T14:02:41.313Z,24.4
2018-08-07T14:03:32.105Z,24.4
2018-08-07T14:04:21.197Z,24.4
2018-08-07T14:05:11.808Z,24.4
2018-08-07T14:06:02.199Z,24.4
2018-08-07T14:06:51.446Z,24.4
2018-08-07T14:07:41.287Z,24.4
2018-08-07T14:08:32.348Z,24.4
2018-08-07T14:09:22.235Z,24.4
2018-08-07T14:10:12.805Z,24.4
2018-08-07T14:11:02.016Z,24.4
2018-08-07T14:11:52.324Z,24.4
2018-08-07T14:12:42.258Z,24.4
2018-08-07T14:13:32.154Z,24.4
2018-08-07T14:14:22.545Z,24.4
2018-08-07T14:15:12.026Z,24.4
2018-08-07T14:16:02.693Z,24.4
2018-08-07T14:16:52.503Z,24.4
2018-08-07T14:17:43.318Z,24.4
2018-08-07T14:18:33.135Z,24.4
2018-08-07T14:19:22.746Z,24.4
2018-08-07T14:20:13.237Z,24.4
2018-08-07T14:21:02.184Z,24.4
2018-08-07T14:21:52.818Z,24.4
2018-08-07T14:22:43.169Z,24.4
2018-08-07T14:23:33.844Z,24.4
2018-08-07T14:24:23.309Z,24.4
2018-08-07T14:25:12.877Z,24.4
2018-08-07T14:26:02.289Z,24.4
2018-08-07T14:26:53.253Z,24.4
2018-08-07T14:27:43.403Z,24.4
2018-08-07T14:28:34.047Z,24.4
2018-08-07T14:29:23.054Z,24.4
2018-08-07T14:30:12.905Z,24.4
2018-08-07T14:31:03.542Z,24.4
2018-08-07T14:31:53.970Z,24.4
2018-08-07T14:32:44.053Z,24.4
2018-08-07T14:33:33.478Z,24.4
2018-08-07T14:34:24.352Z,24.4
2018-08-07T14:35:13.871Z,24.4
2018-08-07T14:36:03.696Z,24.4